< < Back
Terminal Aerodrome Forecast


Current Version              Previous Versions:   1  2  3  4  5  6  7  8  9  

Terminal Aerodrome Forecast

324
FTUS42 KGSP 291349 AAA
TAFAND
TAF AMD
KAND 291349Z 2914/3012 02004KT P6SM -SHRA SCT025 OVC035
      TEMPO 2914/2918 4SM -SHRA BR BKN010 OVC025
     FM291800 03010KT P6SM VCSH OVC050
     FM300000 03006KT P6SM SCT060 BKN150=

Latest METAR

923
SAUS70 KWBC 300200 RRE
MTRAND
METAR KAND 300156Z AUTO 06006KT 10SM CLR 22/18 A3005 RMK AO2 SLP167
T02170178


USA.gov is the U.S. government's official web portal to all federal, state and local government web resources and services.